Time;durP1;ratioP1;P1;durP2;ratioP2;P2;SDS_P1;SDS_P2;PMS_P1;PMS_P2;Temp;Humidity;BMP_temperature;BMP_pressure;BME280_temperature;BME280_humidity;BME280_pressure;Samples;Min_cycle;Max_cycle;Signal;HPM_P1;HPM_P2
2023/12/06 00:00:12;;;;;;;14.43;7.43;;;3.00;97.10;;;;;;6090454;23;20030;-78
2023/12/06 00:02:38;;;;;;;16.02;7.75;;;3.00;97.10;;;;;;6091488;23;20005;-78
2023/12/06 00:05:04;;;;;;;15.98;7.80;;;3.00;97.10;;;;;;6088287;23;20007;-76
2023/12/06 00:07:29;;;;;;;14.25;7.53;;;3.00;97.10;;;;;;6090016;23;20033;-78
2023/12/06 00:09:55;;;;;;;14.23;7.43;;;3.00;97.10;;;;;;6091400;23;20006;-78
2023/12/06 00:12:20;;;;;;;13.80;6.70;;;3.00;97.10;;;;;;6092897;23;20053;-77
2023/12/06 00:14:46;;;;;;;14.43;7.43;;;3.00;97.10;;;;;;6092472;23;20399;-79
2023/12/06 00:17:11;;;;;;;14.15;7.88;;;3.00;97.10;;;;;;6092440;23;20596;-77
2023/12/06 00:19:37;;;;;;;14.18;7.45;;;3.00;97.00;;;;;;6092555;23;20007;-78
2023/12/06 00:22:03;;;;;;;14.70;7.85;;;3.00;97.10;;;;;;6091363;23;19998;-77
2023/12/06 00:24:28;;;;;;;15.27;7.30;;;3.00;97.10;;;;;;6094479;23;20011;-78
2023/12/06 00:26:54;;;;;;;15.38;7.38;;;3.00;97.10;;;;;;6094867;23;20002;-78
2023/12/06 00:29:19;;;;;;;15.63;7.68;;;3.00;97.10;;;;;;6094432;23;20006;-78
2023/12/06 00:31:45;;;;;;;12.68;6.45;;;3.00;97.10;;;;;;6095591;23;20011;-78
2023/12/06 00:34:10;;;;;;;12.07;6.22;;;3.00;97.10;;;;;;6094525;23;20652;-78
2023/12/06 00:36:36;;;;;;;13.38;7.25;;;3.10;97.00;;;;;;6095714;23;20073;-78
2023/12/06 00:39:01;;;;;;;13.02;6.35;;;3.00;96.90;;;;;;6095464;23;20036;-79
2023/12/06 00:41:27;;;;;;;10.43;5.68;;;3.00;97.00;;;;;;6091799;23;19999;-79
2023/12/06 00:43:53;;;;;;;13.55;6.90;;;3.00;97.00;;;;;;6093421;23;20013;-78
2023/12/06 00:46:19;;;;;;;11.63;6.70;;;3.10;97.10;;;;;;6094064;23;20002;-77
2023/12/06 00:48:45;;;;;;;11.80;6.22;;;3.10;97.10;;;;;;6093196;23;20637;-79
2023/12/06 00:51:10;;;;;;;12.48;6.43;;;3.10;97.00;;;;;;6094428;23;20006;-78
2023/12/06 00:53:36;;;;;;;13.15;7.07;;;3.10;96.90;;;;;;6093835;23;20456;-79
2023/12/06 00:56:01;;;;;;;11.95;6.10;;;3.10;96.80;;;;;;6090211;23;20058;-78
2023/12/06 00:58:27;;;;;;;11.85;6.22;;;3.10;96.90;;;;;;6092784;23;20066;-79
2023/12/06 01:00:52;;;;;;;12.18;6.32;;;3.10;97.00;;;;;;6091503;23;20007;-77
2023/12/06 01:03:18;;;;;;;11.05;6.00;;;3.20;96.90;;;;;;6093119;23;20086;-78
2023/12/06 01:05:43;;;;;;;11.70;6.25;;;3.10;97.00;;;;;;6094112;23;20006;-79
2023/12/06 01:08:09;;;;;;;9.75;5.10;;;3.20;97.30;;;;;;6093562;23;20085;-79
2023/12/06 01:10:35;;;;;;;9.05;4.93;;;3.20;97.00;;;;;;6094795;23;20010;-78
2023/12/06 01:13:00;;;;;;;9.07;5.22;;;3.20;97.00;;;;;;6092962;23;20010;-79
2023/12/06 01:15:26;;;;;;;11.00;5.90;;;3.20;97.00;;;;;;6091752;23;20082;-79
2023/12/06 01:17:52;;;;;;;12.20;6.20;;;3.20;96.90;;;;;;6093230;23;20013;-78
2023/12/06 01:20:17;;;;;;;8.65;4.95;;;3.30;96.90;;;;;;6069997;23;20458;-78
2023/12/06 01:22:43;;;;;;;12.38;6.65;;;3.30;97.00;;;;;;6095752;23;20004;-79
2023/12/06 01:25:09;;;;;;;10.82;5.50;;;3.30;97.00;;;;;;6093500;23;20010;-77
2023/12/06 01:27:37;;;;;;;9.98;5.50;;;3.30;97.00;;;;;;6068128;23;20007;-78
2023/12/06 01:30:04;;;;;;;10.77;6.18;;;3.30;96.90;;;;;;6092382;23;20059;-77
2023/12/06 01:32:30;;;;;;;10.68;5.28;;;3.30;97.20;;;;;;6093703;23;20097;-79
2023/12/06 01:34:55;;;;;;;9.30;4.88;;;3.30;96.90;;;;;;6067763;23;20108;-78
2023/12/06 01:37:21;;;;;;;11.15;5.93;;;3.40;97.00;;;;;;6095122;23;20007;-78
2023/12/06 01:39:47;;;;;;;10.25;5.53;;;3.30;96.90;;;;;;6094978;23;20008;-77
2023/12/06 01:42:13;;;;;;;10.68;5.18;;;3.40;96.90;;;;;;6069860;23;20002;-79
2023/12/06 01:44:38;;;;;;;9.93;5.32;;;3.40;96.80;;;;;;6096907;23;20010;-76
2023/12/06 01:47:05;;;;;;;10.05;5.25;;;3.40;96.80;;;;;;6095857;23;20053;-78
2023/12/06 01:49:31;;;;;;;9.07;4.65;;;3.50;96.80;;;;;;6094774;23;20052;-76
2023/12/06 01:51:57;;;;;;;9.57;4.80;;;3.50;96.80;;;;;;6068768;23;20576;-78
2023/12/06 01:54:23;;;;;;;8.35;4.75;;;3.50;96.80;;;;;;6095021;23;20026;-77
2023/12/06 01:56:48;;;;;;;10.13;4.93;;;3.50;96.70;;;;;;6069747;23;20007;-78
2023/12/06 01:59:14;;;;;;;8.00;4.47;;;3.50;96.70;;;;;;6067928;23;20058;-78
2023/12/06 02:01:40;;;;;;;8.68;4.40;;;3.50;96.80;;;;;;6093974;23;19998;-76
2023/12/06 02:04:06;;;;;;;7.85;4.47;;;3.60;96.80;;;;;;6065190;23;20424;-78
2023/12/06 02:06:32;;;;;;;8.95;4.40;;;3.70;96.80;;;;;;6066214;23;20006;-77
2023/12/06 02:08:59;;;;;;;7.93;4.47;;;3.60;96.80;;;;;;6066384;23;20042;-78
2023/12/06 02:11:24;;;;;;;7.38;3.80;;;3.70;96.80;;;;;;6093892;23;20062;-78
2023/12/06 02:13:50;;;;;;;9.25;4.82;;;3.70;96.70;;;;;;6068515;23;20416;-77
2023/12/06 02:16:16;;;;;;;8.90;4.70;;;3.70;96.70;;;;;;6067115;23;20010;-78
2023/12/06 02:18:42;;;;;;;9.38;4.68;;;3.70;96.80;;;;;;6077696;23;20017;-78
2023/12/06 02:21:08;;;;;;;9.77;4.97;;;3.70;96.80;;;;;;6089763;23;20098;-77
2023/12/06 02:23:37;;;;;;;9.35;4.78;;;3.70;96.70;;;;;;6093004;23;20034;-78
2023/12/06 02:26:03;;;;;;;8.98;4.43;;;3.70;96.70;;;;;;6090738;23;20022;-78
2023/12/06 02:28:29;;;;;;;8.88;4.18;;;3.80;96.70;;;;;;6093226;23;20089;-76
2023/12/06 02:30:54;;;;;;;8.85;4.70;;;3.80;96.70;;;;;;6091317;23;20029;-77
2023/12/06 02:33:21;;;;;;;8.40;4.30;;;3.90;96.70;;;;;;6092306;23;20009;-79
2023/12/06 02:35:51;;;;;;;10.65;5.30;;;3.80;96.70;;;;;;6093999;23;20110;-79
2023/12/06 02:38:19;;;;;;;9.88;4.90;;;3.80;96.60;;;;;;6094353;23;19999;-78
2023/12/06 02:40:46;;;;;;;9.30;4.82;;;3.80;96.60;;;;;;6093592;23;20013;-78
2023/12/06 02:43:13;;;;;;;10.80;5.82;;;3.80;96.70;;;;;;6091006;23;20082;-78
2023/12/06 02:45:39;;;;;;;7.88;4.57;;;3.80;96.70;;;;;;6093425;23;20013;-78
2023/12/06 02:48:05;;;;;;;10.57;4.88;;;3.80;96.70;;;;;;6091866;23;20030;-78
2023/12/06 02:50:30;;;;;;;8.77;4.32;;;3.80;96.70;;;;;;6093528;23;20340;-76
2023/12/06 02:52:56;;;;;;;8.90;4.57;;;3.90;96.70;;;;;;6093342;23;20108;-77
2023/12/06 02:55:21;;;;;;;10.90;5.60;;;3.90;96.70;;;;;;6090941;23;20037;-79
2023/12/06 02:57:47;;;;;;;8.95;4.80;;;3.90;96.70;;;;;;6092486;23;20002;-77
2023/12/06 03:00:13;;;;;;;8.32;4.55;;;3.90;96.70;;;;;;6091527;23;20013;-78
2023/12/06 03:02:38;;;;;;;9.55;4.80;;;3.90;96.80;;;;;;6093752;23;20022;-77
2023/12/06 03:05:04;;;;;;;7.85;4.38;;;3.90;96.80;;;;;;6091500;23;20003;-77
2023/12/06 03:07:29;;;;;;;7.90;3.90;;;3.90;96.80;;;;;;6092236;23;20018;-78
2023/12/06 03:09:56;;;;;;;7.60;3.97;;;4.00;96.80;;;;;;6094737;23;20345;-77
2023/12/06 03:12:21;;;;;;;8.15;4.25;;;4.00;96.80;;;;;;6090514;23;20487;-76
2023/12/06 03:14:47;;;;;;;9.75;5.07;;;4.00;96.80;;;;;;6092745;23;20138;-78
2023/12/06 03:17:12;;;;;;;9.20;4.80;;;4.00;96.70;;;;;;6091664;23;20010;-76
2023/12/06 03:19:38;;;;;;;8.38;4.45;;;4.00;96.80;;;;;;6092312;23;20010;-78
2023/12/06 03:22:03;;;;;;;9.18;4.40;;;4.00;96.80;;;;;;6092399;23;19999;-77
2023/12/06 03:24:29;;;;;;;7.47;3.78;;;4.00;96.90;;;;;;6092690;23;20459;-78
2023/12/06 03:26:54;;;;;;;7.72;4.38;;;4.10;96.90;;;;;;6092012;23;20007;-78
2023/12/06 03:29:20;;;;;;;7.55;3.80;;;4.10;96.90;;;;;;6092074;23;20002;-77
2023/12/06 03:31:45;;;;;;;7.75;4.22;;;4.10;96.90;;;;;;6093588;23;20014;-77
2023/12/06 03:34:11;;;;;;;7.07;3.70;;;4.10;96.90;;;;;;6091139;23;20007;-79
2023/12/06 03:36:36;;;;;;;5.60;3.40;;;4.10;96.90;;;;;;6092720;23;20009;-78
2023/12/06 03:39:02;;;;;;;6.07;3.60;;;4.20;97.00;;;;;;6091939;23;19998;-78
2023/12/06 03:41:28;;;;;;;6.28;3.45;;;4.20;97.00;;;;;;6092614;23;20524;-76
2023/12/06 03:43:53;;;;;;;7.63;3.90;;;4.20;96.90;;;;;;6095532;23;20003;-79
2023/12/06 03:46:19;;;;;;;6.95;3.67;;;4.20;96.90;;;;;;6093375;23;20003;-79
2023/12/06 03:48:44;;;;;;;7.72;4.30;;;4.20;96.90;;;;;;6093340;23;20002;-78
2023/12/06 03:51:10;;;;;;;7.40;3.70;;;4.20;96.90;;;;;;6094454;23;20013;-79
2023/12/06 03:53:36;;;;;;;5.95;3.28;;;4.30;96.90;;;;;;6094090;23;20070;-78
2023/12/06 03:56:01;;;;;;;5.22;3.42;;;4.30;97.00;;;;;;6093253;23;20026;-79
2023/12/06 03:58:27;;;;;;;7.28;3.70;;;4.30;97.00;;;;;;6095648;23;20009;-78
2023/12/06 04:00:52;;;;;;;5.95;3.47;;;4.30;96.90;;;;;;6096441;23;20010;-80
2023/12/06 04:03:19;;;;;;;7.18;3.88;;;4.30;96.90;;;;;;6095849;23;20067;-78
2023/12/06 04:05:44;;;;;;;8.15;4.05;;;4.40;96.90;;;;;;6098890;23;20002;-77
2023/12/06 04:08:13;;;;;;;8.75;4.18;;;4.30;96.90;;;;;;6095334;23;20002;-79
2023/12/06 04:10:39;;;;;;;7.60;4.00;;;4.30;96.90;;;;;;6096291;23;20077;-80
2023/12/06 04:13:04;;;;;;;6.57;3.72;;;4.30;96.90;;;;;;6097332;23;20011;-77
2023/12/06 04:15:31;;;;;;;6.88;3.97;;;4.40;96.90;;;;;;6094892;23;20035;-79
2023/12/06 04:17:56;;;;;;;7.25;3.83;;;4.30;96.90;;;;;;6096214;23;20101;-78
2023/12/06 04:20:23;;;;;;;7.03;3.65;;;4.40;96.90;;;;;;6094554;23;20013;-79
2023/12/06 04:22:49;;;;;;;8.45;4.78;;;4.40;96.90;;;;;;6094297;23;19998;-77
2023/12/06 04:25:15;;;;;;;8.93;4.68;;;4.40;96.90;;;;;;6067511;23;20049;-78
2023/12/06 04:27:41;;;;;;;7.72;4.18;;;4.40;96.90;;;;;;6068049;23;20002;-76
2023/12/06 04:30:09;;;;;;;8.68;4.30;;;4.40;96.80;;;;;;6068487;23;20145;-79
2023/12/06 04:32:34;;;;;;;8.07;4.60;;;4.40;96.90;;;;;;6092310;23;20003;-77
2023/12/06 04:35:00;;;;;;;6.45;4.25;;;4.40;96.90;;;;;;6067731;23;20009;-77
2023/12/06 04:37:25;;;;;;;7.03;4.30;;;4.50;97.00;;;;;;6092922;23;20006;-76
2023/12/06 04:39:51;;;;;;;8.57;4.30;;;4.40;96.90;;;;;;6093833;23;20344;-79
2023/12/06 04:42:17;;;;;;;7.22;4.28;;;4.50;96.90;;;;;;6067645;23;20424;-79
2023/12/06 04:44:43;;;;;;;6.05;3.60;;;4.50;96.90;;;;;;6095010;23;20081;-78
2023/12/06 04:47:08;;;;;;;6.45;3.53;;;4.50;96.90;;;;;;6094335;23;20040;-80
2023/12/06 04:49:34;;;;;;;5.30;3.45;;;4.50;96.90;;;;;;6068389;23;20017;-79
2023/12/06 04:52:01;;;;;;;8.38;4.90;;;4.60;96.90;;;;;;6094432;23;20007;-77
2023/12/06 04:54:26;;;;;;;7.38;4.40;;;4.60;96.90;;;;;;6069340;23;20033;-78
2023/12/06 04:56:52;;;;;;;6.13;3.63;;;4.60;96.90;;;;;;6068951;23;20519;-79
2023/12/06 04:59:18;;;;;;;6.32;3.70;;;4.60;96.90;;;;;;6068364;23;19999;-79
2023/12/06 05:01:43;;;;;;;7.82;4.30;;;4.60;96.80;;;;;;6069300;23;19998;-79
2023/12/06 05:04:09;;;;;;;6.15;3.75;;;4.60;96.80;;;;;;6093886;23;20010;-77
2023/12/06 05:06:36;;;;;;;6.47;3.80;;;4.60;96.80;;;;;;6094607;23;20007;-80
2023/12/06 05:09:01;;;;;;;5.22;3.30;;;4.60;96.80;;;;;;6068474;23;20013;-78
2023/12/06 05:11:27;;;;;;;5.35;3.30;;;4.60;96.90;;;;;;6068836;23;20006;-78
2023/12/06 05:13:53;;;;;;;5.32;3.15;;;4.60;96.90;;;;;;6067745;23;20010;-78
2023/12/06 05:16:18;;;;;;;4.53;2.88;;;4.70;97.00;;;;;;6067392;23;20025;-79
2023/12/06 05:18:44;;;;;;;5.43;3.13;;;4.70;97.00;;;;;;6094316;23;20069;-78
2023/12/06 05:21:09;;;;;;;5.45;3.25;;;4.70;96.90;;;;;;6067195;23;20007;-77
2023/12/06 05:23:35;;;;;;;6.10;3.80;;;4.70;96.90;;;;;;6067856;23;20006;-77
2023/12/06 05:26:01;;;;;;;6.50;3.63;;;4.60;96.90;;;;;;6093859;23;20010;-77
2023/12/06 05:28:26;;;;;;;6.55;3.80;;;4.70;96.90;;;;;;6094282;23;20014;-77
2023/12/06 05:30:52;;;;;;;7.13;3.97;;;4.70;96.90;;;;;;6093038;23;20340;-78
2023/12/06 05:33:18;;;;;;;6.38;3.55;;;4.70;97.00;;;;;;6068575;23;20010;-77
2023/12/06 05:35:45;;;;;;;6.82;3.60;;;4.70;97.00;;;;;;6067350;23;20425;-76
2023/12/06 05:38:10;;;;;;;5.68;3.17;;;4.70;97.00;;;;;;6092489;23;20089;-78
2023/12/06 05:40:36;;;;;;;5.85;3.50;;;4.70;97.00;;;;;;6093257;23;20621;-78
2023/12/06 05:43:02;;;;;;;6.65;4.00;;;4.70;97.30;;;;;;6094200;23;19998;-77
2023/12/06 05:45:27;;;;;;;6.43;3.72;;;4.70;96.90;;;;;;6068283;23;20053;-77
2023/12/06 05:47:53;;;;;;;5.50;3.33;;;4.70;97.00;;;;;;6093567;23;20010;-77
2023/12/06 05:50:19;;;;;;;6.70;3.45;;;4.70;97.00;;;;;;6093765;23;19998;-78
2023/12/06 05:52:44;;;;;;;5.00;2.80;;;4.70;97.10;;;;;;6068550;23;20006;-79
2023/12/06 05:55:10;;;;;;;4.30;3.08;;;4.70;97.10;;;;;;6093891;23;20085;-79
2023/12/06 05:57:35;;;;;;;6.55;3.45;;;4.80;97.10;;;;;;6067044;23;20007;-79
2023/12/06 06:00:01;;;;;;;5.47;3.05;;;4.80;97.10;;;;;;6093822;23;20003;-78
2023/12/06 06:02:27;;;;;;;5.18;3.00;;;4.70;97.10;;;;;;6068709;23;20368;-79
2023/12/06 06:04:52;;;;;;;4.97;2.90;;;4.80;97.20;;;;;;6069321;23;20002;-77
2023/12/06 06:07:18;;;;;;;4.60;2.88;;;4.80;97.10;;;;;;6094268;23;20054;-78
2023/12/06 06:09:44;;;;;;;4.72;3.08;;;4.80;97.10;;;;;;6069585;23;20010;-79
2023/12/06 06:12:09;;;;;;;4.55;2.60;;;4.90;97.10;;;;;;6091903;23;20013;-76
2023/12/06 06:14:35;;;;;;;3.30;2.30;;;4.90;97.10;;;;;;6065965;23;20006;-76
2023/12/06 06:17:00;;;;;;;5.18;2.88;;;4.90;97.10;;;;;;6091533;23;20007;-77
2023/12/06 06:19:26;;;;;;;3.80;2.50;;;5.00;97.10;;;;;;6085852;23;20041;-78
2023/12/06 06:21:52;;;;;;;5.18;3.13;;;5.00;97.10;;;;;;6091371;23;20041;-77
2023/12/06 06:24:17;;;;;;;3.60;2.38;;;5.00;97.10;;;;;;6091487;23;20400;-78
2023/12/06 06:26:43;;;;;;;4.72;2.92;;;5.00;97.20;;;;;;6091001;23;20838;-78
2023/12/06 06:29:09;;;;;;;3.70;2.40;;;5.00;97.10;;;;;;6093021;23;20007;-78
2023/12/06 06:31:35;;;;;;;4.75;2.80;;;5.00;97.00;;;;;;6093909;23;20009;-76
2023/12/06 06:34:03;;;;;;;5.43;3.17;;;5.00;97.10;;;;;;6093731;23;20007;-77
2023/12/06 06:36:29;;;;;;;5.40;3.40;;;5.00;97.10;;;;;;6093609;23;20081;-79
2023/12/06 06:38:57;;;;;;;6.97;3.50;;;5.00;97.10;;;;;;6094585;23;19998;-79
2023/12/06 06:41:27;;;;;;;4.40;2.95;;;5.00;97.20;;;;;;6091386;23;20451;-78
2023/12/06 06:43:52;;;;;;;5.95;3.92;;;5.00;97.20;;;;;;6093545;23;20009;-78
2023/12/06 06:46:18;;;;;;;6.53;3.75;;;5.00;97.20;;;;;;6093195;23;20002;-80
2023/12/06 06:48:44;;;;;;;6.10;3.70;;;5.00;97.20;;;;;;6091238;23;20010;-80
2023/12/06 06:51:09;;;;;;;6.60;3.55;;;5.00;97.50;;;;;;6094899;23;20006;-80
2023/12/06 06:53:35;;;;;;;5.90;3.30;;;5.00;97.20;;;;;;6096798;23;20007;-78
2023/12/06 06:56:01;;;;;;;4.88;3.13;;;5.00;97.20;;;;;;6093700;23;20003;-78
2023/12/06 06:58:27;;;;;;;4.28;2.88;;;5.10;97.50;;;;;;6091595;23;20013;-81
2023/12/06 07:00:53;;;;;;;4.03;2.70;;;5.00;97.30;;;;;;6095323;23;20391;-80
2023/12/06 07:03:19;;;;;;;4.05;2.55;;;5.10;97.30;;;;;;6094831;23;20329;-80
2023/12/06 07:05:45;;;;;;;4.22;2.80;;;5.10;97.30;;;;;;6095998;23;20010;-82
2023/12/06 07:08:10;;;;;;;6.60;4.15;;;5.20;97.40;;;;;;6095882;23;20012;-82
2023/12/06 07:10:37;;;;;;;6.50;3.85;;;5.10;97.30;;;;;;6099675;23;20030;-81
2023/12/06 07:13:02;;;;;;;5.57;3.30;;;5.10;97.30;;;;;;6097174;23;20006;-81
2023/12/06 07:15:28;;;;;;;3.83;2.67;;;5.10;97.40;;;;;;6096903;23;20029;-82
2023/12/06 07:17:54;;;;;;;4.43;2.90;;;5.20;97.40;;;;;;6095647;23;20006;-82
2023/12/06 07:20:20;;;;;;;4.28;2.78;;;5.20;97.50;;;;;;6072448;23;20016;-79
2023/12/06 07:22:45;;;;;;;3.95;2.70;;;5.20;97.40;;;;;;6097747;23;20029;-81
2023/12/06 07:25:15;;;;;;;4.20;2.78;;;5.20;97.30;;;;;;6074731;23;20099;-83
2023/12/06 07:27:44;;;;;;;5.28;3.00;;;5.20;97.30;;;;;;6106655;23;20013;-81
2023/12/06 07:30:12;;;;;;;5.05;2.80;;;5.30;97.40;;;;;;6108294;23;20436;-79
2023/12/06 07:32:37;;;;;;;4.35;2.60;;;5.30;97.30;;;;;;6079414;23;20438;-82
2023/12/06 07:35:03;;;;;;;4.38;2.70;;;5.30;97.30;;;;;;6078378;23;20010;-84
2023/12/06 07:37:29;;;;;;;4.07;2.63;;;5.30;97.30;;;;;;6095661;23;20012;-81
2023/12/06 07:39:54;;;;;;;3.70;2.30;;;5.40;97.40;;;;;;6077685;23;20026;-80
2023/12/06 07:42:20;;;;;;;3.83;2.50;;;5.30;97.30;;;;;;6108664;23;20002;-81
2023/12/06 07:44:46;;;;;;;5.57;2.90;;;5.40;97.30;;;;;;6084288;23;20065;-82
2023/12/06 07:47:13;;;;;;;3.58;2.50;;;5.40;97.30;;;;;;6082257;23;20419;-80
2023/12/06 07:49:38;;;;;;;3.55;2.78;;;5.40;97.30;;;;;;6080351;23;20111;-81
2023/12/06 07:52:13;;;;;;;3.78;2.63;;;5.40;97.30;;;;;;6088831;23;20002;-87
2023/12/06 07:54:38;;;;;;;3.40;2.20;;;5.40;97.30;;;;;;6091050;23;20344;-84
2023/12/06 07:57:05;;;;;;;4.90;2.90;;;5.40;97.40;;;;;;6085253;23;20089;-78
2023/12/06 07:59:30;;;;;;;4.32;2.50;;;5.40;97.40;;;;;;6082841;23;20006;-78
2023/12/06 08:01:56;;;;;;;5.75;3.00;;;5.40;97.30;;;;;;6083955;23;20007;-85
2023/12/06 08:04:21;;;;;;;6.45;3.20;;;5.40;97.30;;;;;;6085127;23;20013;-83
2023/12/06 08:06:47;;;;;;;4.88;3.00;;;5.40;97.30;;;;;;6082565;23;20038;-85
2023/12/06 08:09:12;;;;;;;4.28;2.70;;;5.40;97.30;;;;;;6073861;23;20436;-78
2023/12/06 08:11:41;;;;;;;4.60;2.97;;;5.50;97.30;;;;;;6072410;23;20070;-80
2023/12/06 08:14:07;;;;;;;3.72;2.67;;;5.40;97.30;;;;;;6073207;23;20533;-79
2023/12/06 08:16:33;;;;;;;3.78;2.65;;;5.40;97.30;;;;;;6098444;23;20077;-82
2023/12/06 08:18:58;;;;;;;4.60;2.58;;;5.40;97.40;;;;;;6084336;23;20089;-80
2023/12/06 08:21:24;;;;;;;3.95;2.70;;;5.50;97.40;;;;;;6092339;23;20428;-77
2023/12/06 08:23:50;;;;;;;4.43;2.55;;;5.40;97.30;;;;;;6094313;23;20021;-78
2023/12/06 08:26:16;;;;;;;3.35;2.30;;;5.50;97.40;;;;;;6095752;23;20010;-80
2023/12/06 08:28:42;;;;;;;4.90;2.75;;;5.50;97.40;;;;;;6099302;23;20015;-80
2023/12/06 08:31:08;;;;;;;5.13;3.28;;;5.50;97.30;;;;;;6095129;23;20098;-77
2023/12/06 08:33:35;;;;;;;4.97;2.70;;;5.50;97.40;;;;;;6094763;23;20037;-80
2023/12/06 08:36:00;;;;;;;6.38;3.05;;;5.50;97.40;;;;;;6092980;23;20003;-81
2023/12/06 08:38:26;;;;;;;4.75;2.72;;;5.50;97.40;;;;;;6095587;23;20006;-78
2023/12/06 08:40:51;;;;;;;3.78;2.40;;;5.60;97.40;;;;;;6095002;23;20034;-80
2023/12/06 08:43:17;;;;;;;5.45;2.97;;;5.60;97.30;;;;;;6098926;23;20010;-82
2023/12/06 08:45:42;;;;;;;4.78;2.85;;;5.60;97.30;;;;;;6099215;23;20006;-80
2023/12/06 08:48:08;;;;;;;4.32;2.72;;;5.60;97.30;;;;;;6099010;23;20021;-80
2023/12/06 08:50:40;;;;;;;5.40;2.70;;;5.60;97.20;;;;;;6095478;23;20002;-82
2023/12/06 08:53:05;;;;;;;5.40;2.95;;;5.60;97.30;;;;;;6097588;23;20093;-80
2023/12/06 08:55:31;;;;;;;2.92;2.20;;;5.60;97.30;;;;;;6100732;23;20003;-83
2023/12/06 08:57:56;;;;;;;3.88;2.45;;;5.70;97.30;;;;;;6099790;23;19998;-79
2023/12/06 09:00:22;;;;;;;2.72;2.00;;;5.70;97.20;;;;;;6098776;23;20034;-78
2023/12/06 09:03:05;;;;;;;3.63;2.40;;;5.70;97.20;;;;;;6097605;23;20003;-86
2023/12/06 09:05:31;;;;;;;3.30;2.15;;;5.70;97.20;;;;;;6097108;23;20006;-79
2023/12/06 09:07:57;;;;;;;3.53;2.30;;;5.70;97.20;;;;;;6097876;23;20159;-81
2023/12/06 09:10:23;;;;;;;4.07;2.50;;;5.80;97.10;;;;;;6100773;23;20452;-79
2023/12/06 09:12:49;;;;;;;3.30;2.38;;;5.80;97.10;;;;;;6109594;23;20010;-81
2023/12/06 09:15:16;;;;;;;3.72;2.30;;;5.80;97.10;;;;;;6101658;23;20069;-82
2023/12/06 09:17:41;;;;;;;3.58;2.50;;;5.80;97.20;;;;;;6098293;23;20062;-80
2023/12/06 09:20:09;;;;;;;3.42;2.30;;;5.80;97.10;;;;;;6073398;23;20388;-82
2023/12/06 09:22:35;;;;;;;2.95;2.10;;;5.80;97.10;;;;;;6073957;23;20057;-81
2023/12/06 09:25:04;;;;;;;3.28;2.30;;;5.80;97.20;;;;;;6069199;23;20006;-80
2023/12/06 09:27:33;;;;;;;2.50;2.00;;;5.80;97.20;;;;;;6069993;23;20397;-83
2023/12/06 09:29:59;;;;;;;4.07;2.58;;;5.90;97.20;;;;;;6070669;23;20002;-84
2023/12/06 09:32:24;;;;;;;3.42;2.38;;;5.90;97.10;;;;;;6071855;23;20062;-80
2023/12/06 09:34:50;;;;;;;4.00;2.58;;;5.80;97.10;;;;;;6099075;23;20018;-84
2023/12/06 09:37:16;;;;;;;4.10;2.50;;;5.80;97.10;;;;;;6071358;23;20214;-81
2023/12/06 09:39:43;;;;;;;4.07;2.60;;;5.90;97.10;;;;;;6070734;23;19998;-86
2023/12/06 09:42:10;;;;;;;4.15;2.70;;;5.90;97.00;;;;;;6069656;23;20085;-78
2023/12/06 09:44:41;;;;;;;4.15;2.75;;;5.90;97.20;;;;;;6069085;23;20002;-83
2023/12/06 09:47:06;;;;;;;4.50;2.40;;;5.90;97.10;;;;;;6073033;23;20474;-83
2023/12/06 09:49:32;;;;;;;3.40;2.30;;;6.00;97.10;;;;;;6088491;23;20006;-83
2023/12/06 09:52:17;;;;;;;3.78;2.10;;;6.00;97.10;;;;;;6081467;23;20006;-80
2023/12/06 09:54:43;;;;;;;3.00;1.92;;;6.00;97.00;;;;;;6071629;23;20026;-78
2023/12/06 09:57:10;;;;;;;2.75;1.98;;;6.10;97.00;;;;;;6096749;23;20349;-81
2023/12/06 09:59:35;;;;;;;3.90;2.72;;;6.10;96.90;;;;;;6071744;23;19999;-81
2023/12/06 10:02:01;;;;;;;3.55;2.38;;;6.20;96.90;;;;;;6068273;23;20003;-79
2023/12/06 10:04:27;;;;;;;2.75;2.03;;;6.20;96.90;;;;;;6069257;23;20010;-80
2023/12/06 10:06:54;;;;;;;3.00;2.13;;;6.20;96.90;;;;;;6093467;23;20109;-81
2023/12/06 10:09:20;;;;;;;3.47;2.17;;;6.30;96.80;;;;;;6068355;23;20010;-80
2023/12/06 10:11:47;;;;;;;4.43;2.70;;;6.30;96.80;;;;;;6068562;23;20659;-78
2023/12/06 10:14:20;;;;;;;4.68;2.90;;;6.40;96.80;;;;;;6069205;23;20018;-81
2023/12/06 10:16:47;;;;;;;4.72;3.15;;;6.40;96.70;;;;;;6097772;23;20006;-78
2023/12/06 10:19:19;;;;;;;4.10;2.53;;;6.40;96.70;;;;;;6086101;23;20006;-79
2023/12/06 10:21:50;;;;;;;4.03;2.83;;;6.50;96.70;;;;;;6098002;23;19999;-79
2023/12/06 10:24:16;;;;;;;4.28;2.60;;;6.50;96.50;;;;;;6097728;23;20010;-77
2023/12/06 10:26:42;;;;;;;5.50;2.42;;;6.40;96.50;;;;;;6089846;23;20085;-79
2023/12/06 10:29:08;;;;;;;5.10;3.33;;;6.50;96.60;;;;;;6093028;23;20401;-76
2023/12/06 10:31:42;;;;;;;6.82;3.65;;;6.50;96.60;;;;;;6090777;23;20013;-76
2023/12/06 10:34:09;;;;;;;3.50;2.60;;;6.50;96.60;;;;;;6091286;23;20009;-76
2023/12/06 10:36:37;;;;;;;4.85;2.63;;;6.60;96.60;;;;;;6092104;23;19998;-77
2023/12/06 10:39:17;;;;;;;5.00;3.28;;;6.60;96.60;;;;;;6090015;23;19999;-77
2023/12/06 10:41:47;;;;;;;5.00;3.03;;;6.60;96.60;;;;;;6088492;23;20009;-77
2023/12/06 10:44:13;;;;;;;3.53;2.55;;;6.60;96.50;;;;;;6092563;23;20034;-79
2023/12/06 10:46:39;;;;;;;3.40;2.47;;;6.60;96.60;;;;;;6087032;23;20101;-79
2023/12/06 10:49:07;;;;;;;2.65;2.05;;;6.60;96.60;;;;;;6090668;23;20010;-78
2023/12/06 10:51:35;;;;;;;3.70;2.78;;;6.70;96.70;;;;;;6091728;23;20023;-82
2023/12/06 10:54:01;;;;;;;4.20;2.78;;;6.70;96.60;;;;;;6092153;23;20017;-78
2023/12/06 10:56:28;;;;;;;5.18;3.00;;;6.80;96.60;;;;;;6090250;23;20030;-78
2023/12/06 10:58:56;;;;;;;5.50;3.10;;;6.80;96.50;;;;;;6092726;23;20010;-77
2023/12/06 11:01:24;;;;;;;5.55;3.40;;;6.90;96.50;;;;;;6092735;23;20006;-78
2023/12/06 11:03:51;;;;;;;5.82;3.20;;;6.80;96.40;;;;;;6092666;23;20006;-81
2023/12/06 11:06:34;;;;;;;4.15;2.55;;;6.80;96.50;;;;;;6092866;23;20074;-79
2023/12/06 11:09:44;;;;;;;4.35;2.80;;;6.80;96.60;;;;;;6093696;23;20002;-79
2023/12/06 11:13:02;;;;;;;5.07;3.00;;;6.90;96.60;;;;;;6094822;23;20010;-78
2023/12/06 11:15:51;;;;;;;4.15;2.35;;;6.90;96.50;;;;;;6004349;23;20014;-76
2023/12/06 11:18:20;;;;;;;3.83;2.53;;;6.90;96.50;;;;;;5979463;23;20021;-78
2023/12/06 11:20:45;;;;;;;5.78;2.85;;;7.00;96.40;;;;;;6071116;23;19998;-78
2023/12/06 11:23:12;;;;;;;5.10;2.72;;;7.00;96.40;;;;;;6093396;23;20031;-81
2023/12/06 11:25:43;;;;;;;3.92;2.70;;;7.00;96.40;;;;;;6088945;23;20022;-78
2023/12/06 11:28:14;;;;;;;5.00;3.47;;;7.00;96.40;;;;;;6094932;23;20010;-80
2023/12/06 11:30:47;;;;;;;6.10;3.40;;;7.00;96.40;;;;;;6092322;23;19998;-81
2023/12/06 11:33:13;;;;;;;4.88;2.90;;;7.10;96.70;;;;;;6093440;23;20899;-79
2023/12/06 11:35:57;;;;;;;5.43;3.05;;;7.10;96.30;;;;;;6093633;23;20030;-81
2023/12/06 11:38:36;;;;;;;5.90;3.72;;;7.20;96.30;;;;;;6092165;23;20149;-83
2023/12/06 11:41:04;;;;;;;6.22;3.78;;;7.20;96.20;;;;;;6092483;23;20073;-78
2023/12/06 11:43:50;;;;;;;3.90;2.85;;;7.30;96.00;;;;;;6096565;23;20002;-80
2023/12/06 11:46:16;;;;;;;5.22;3.05;;;7.30;96.00;;;;;;6093007;23;20062;-78
2023/12/06 11:48:45;;;;;;;4.10;2.70;;;7.40;95.80;;;;;;6093545;23;20006;-79
2023/12/06 11:51:28;;;;;;;3.05;2.30;;;7.40;95.80;;;;;;6093261;23;20013;-78
2023/12/06 11:53:55;;;;;;;3.53;2.38;;;7.50;95.70;;;;;;6097155;23;20014;-79
2023/12/06 11:56:25;;;;;;;2.70;2.13;;;7.50;95.50;;;;;;6094585;23;20025;-81
2023/12/06 11:58:51;;;;;;;4.22;2.63;;;7.50;95.50;;;;;;6092415;23;20002;-81
2023/12/06 12:01:22;;;;;;;5.97;3.75;;;7.50;95.50;;;;;;6097123;23;20002;-83
2023/12/06 12:03:48;;;;;;;4.72;2.95;;;7.50;95.50;;;;;;6095540;23;20002;-80
2023/12/06 12:06:18;;;;;;;3.78;2.55;;;7.60;95.60;;;;;;6092350;23;20102;-79
2023/12/06 12:08:44;;;;;;;4.32;2.97;;;7.70;95.60;;;;;;6090865;23;20007;-81
2023/12/06 12:11:10;;;;;;;3.10;2.50;;;7.80;95.40;;;;;;6093422;23;20405;-82
2023/12/06 12:13:38;;;;;;;3.88;2.42;;;7.80;95.20;;;;;;6093301;23;20006;-80
2023/12/06 12:16:05;;;;;;;3.65;2.47;;;7.80;95.40;;;;;;6093319;23;20009;-81
2023/12/06 12:18:31;;;;;;;3.92;2.90;;;7.90;95.10;;;;;;6091881;23;20480;-81
2023/12/06 12:21:00;;;;;;;5.53;3.50;;;7.90;95.10;;;;;;6094978;23;20085;-79
2023/12/06 12:23:28;;;;;;;4.75;3.10;;;7.80;95.10;;;;;;6091991;23;20010;-80
2023/12/06 12:25:54;;;;;;;4.18;2.45;;;7.80;95.10;;;;;;6093479;23;20002;-79
2023/12/06 12:28:22;;;;;;;3.30;2.53;;;7.80;95.20;;;;;;6095107;23;20089;-87
2023/12/06 12:31:01;;;;;;;4.28;3.10;;;7.80;95.10;;;;;;6094689;23;20490;-83
2023/12/06 12:33:28;;;;;;;4.18;2.83;;;7.80;95.10;;;;;;6093111;23;20030;-79
2023/12/06 12:35:57;;;;;;;4.88;2.60;;;7.80;95.10;;;;;;6093289;23;20055;-82
2023/12/06 12:38:23;;;;;;;3.88;2.33;;;7.70;95.00;;;;;;6094472;23;20085;-82
2023/12/06 12:40:49;;;;;;;4.47;2.63;;;7.80;95.00;;;;;;6094699;23;20443;-82
2023/12/06 12:43:15;;;;;;;5.07;2.95;;;7.80;95.00;;;;;;6092968;23;20034;-78
2023/12/06 12:45:41;;;;;;;3.97;2.58;;;7.80;94.90;;;;;;6094524;23;20009;-82
2023/12/06 12:48:07;;;;;;;3.67;2.60;;;7.70;94.90;;;;;;6092899;23;20011;-79
2023/12/06 12:50:33;;;;;;;3.40;2.47;;;7.70;94.90;;;;;;6093795;23;20022;-82
2023/12/06 12:53:00;;;;;;;3.78;2.40;;;7.70;94.90;;;;;;6094277;23;20508;-78